Time;durP1;ratioP1;P1;durP2;ratioP2;P2;SDS_P1;SDS_P2;PMS_P1;PMS_P2;Temp;Humidity;BMP_temperature;BMP_pressure;BME280_temperature;BME280_humidity;BME280_pressure;Samples;Min_cycle;Max_cycle;Signal;HPM_P1;HPM_P2
2022/04/27 00:02:13;;;;;;;44.42;25.30;;;;;;;8.40;100.00;97445.22;10293051;28;20487;-63
2022/04/27 00:07:12;;;;;;;38.88;22.67;;;;;;;8.86;100.00;97522.06;10292491;28;20041;-63
2022/04/27 00:12:11;;;;;;;35.33;21.17;;;;;;;7.98;100.00;97397.69;10292096;28;20467;-63
2022/04/27 00:17:10;;;;;;;32.00;20.13;;;;;;;8.70;100.00;97537.53;10291959;28;20033;-63
2022/04/27 00:22:11;;;;;;;36.72;22.15;;;;;;;8.66;100.00;97527.19;10292121;28;20490;-63
2022/04/27 00:27:10;;;;;;;39.10;21.88;;;;;;;8.32;100.00;97471.91;10291090;28;20080;-63
2022/04/27 00:32:09;;;;;;;34.42;20.88;;;;;;;8.65;100.00;97528.06;10291316;28;20062;-63
2022/04/27 00:37:08;;;;;;;32.80;20.35;;;;;;;8.60;100.00;97535.81;10291871;28;20036;-63
2022/04/27 00:42:18;;;;;;;32.40;18.60;;;;;;;8.64;100.00;97540.09;10290926;28;20062;-63
2022/04/27 00:47:18;;;;;;;;;;;;;;;8.59;100.00;97543.53;10291601;28;20083;-63
2022/04/27 00:52:18;;;;;;;23.10;14.80;;;;;;;8.31;99.94;97499.47;10290941;28;20411;-63
2022/04/27 00:57:18;;;;;;;25.35;16.20;;;;;;;8.42;100.00;97530.56;10289275;28;20516;-63
2022/04/27 01:02:17;;;;;;;30.65;17.38;;;;;;;8.54;100.00;97530.59;10290221;28;20460;-63
2022/04/27 01:07:17;;;;;;;27.95;16.75;;;;;;;8.39;99.62;97509.84;10290719;28;20519;-63
2022/04/27 01:12:16;;;;;;;22.58;14.15;;;;;;;8.61;99.91;97537.50;10290222;28;20070;-63
2022/04/27 01:17:15;;;;;;;22.73;13.93;;;;;;;8.26;100.00;97467.59;10289582;28;20135;-63
2022/04/27 01:22:14;;;;;;;21.73;14.43;;;;;;;8.08;100.00;97412.41;10290143;28;20026;-63
2022/04/27 01:27:13;;;;;;;30.17;16.52;;;;;;;8.41;100.00;97467.66;10289596;28;20042;-63
2022/04/27 01:32:11;;;;;;;28.65;14.05;;;;;;;8.85;100.00;97526.34;10289761;28;20029;-63
2022/04/27 01:42:28;;;;;;;22.38;12.95;;;;;;;9.10;100.00;97529.00;10289252;28;20500;-63
2022/04/27 01:47:27;;;;;;;18.25;11.88;;;;;;;9.17;100.00;97525.56;10297853;28;20478;-63
2022/04/27 01:57:43;;;;;;;23.35;14.80;;;;;;;9.14;98.89;97543.69;10297313;28;20554;-63
2022/04/27 02:02:42;;;;;;;22.42;13.95;;;;;;;8.75;96.62;97545.31;10297115;28;20458;-63
2022/04/27 02:07:43;;;;;;;25.25;15.05;;;;;;;8.42;96.87;97536.59;10297521;28;20022;-63
2022/04/27 02:12:42;;;;;;;21.63;14.35;;;;;;;8.14;96.95;97527.84;10296824;28;20065;-63
2022/04/27 02:17:41;;;;;;;25.48;15.45;;;;;;;8.01;96.75;97528.63;10296655;28;20041;-63
2022/04/27 02:22:40;;;;;;;27.83;16.45;;;;;;;7.90;96.52;97520.84;10296564;28;20066;-63
2022/04/27 02:27:40;;;;;;;;;;;;;;;7.89;96.86;97547.50;10296674;28;20061;-63
2022/04/27 02:32:40;;;;;;;26.63;15.02;;;;;;;7.85;96.56;97548.38;10296344;28;19956;-63
2022/04/27 02:37:39;;;;;;;27.20;16.30;;;;;;;7.80;96.34;97547.44;10296298;28;20104;-63
2022/04/27 02:42:38;;;;;;;27.52;16.00;;;;;;;7.71;96.81;97530.19;10295812;28;20077;-63
2022/04/27 02:47:37;;;;;;;;;;;;;;;7.75;96.36;97543.97;10296386;28;20503;-63
2022/04/27 02:52:36;;;;;;;25.55;15.55;;;;;;;7.28;96.55;97464.44;10295269;28;20411;-63
2022/04/27 02:57:35;;;;;;;27.08;16.73;;;;;;;7.50;96.68;97496.44;10295107;28;20069;-63
2022/04/27 03:02:34;;;;;;;29.55;17.83;;;;;;;7.64;96.89;97544.78;10294789;28;20113;-63
2022/04/27 03:07:33;;;;;;;33.65;18.75;;;;;;;7.57;97.11;97543.00;10294362;28;20073;-63
2022/04/27 03:12:34;;;;;;;36.42;20.88;;;;;;;7.47;97.48;97533.44;10294826;28;20030;-63
2022/04/27 03:17:33;;;;;;;34.55;19.98;;;;;;;7.63;97.41;97553.34;10294479;28;20066;-63
2022/04/27 03:22:32;;;;;;;33.58;20.40;;;;;;;7.69;97.53;97580.09;10293506;28;20041;-63
2022/04/27 03:27:31;;;;;;;34.47;19.67;;;;;;;7.27;97.11;97501.44;10294088;28;20096;-63
2022/04/27 03:32:30;;;;;;;34.08;20.45;;;;;;;7.31;97.28;97528.97;10293013;28;20472;-63
2022/04/27 03:37:29;;;;;;;38.53;21.15;;;;;;;7.49;97.05;97560.13;10293584;28;20552;-63
2022/04/27 03:42:28;;;;;;;41.67;23.48;;;;;;;7.75;97.08;97593.06;10292623;28;20538;-63
2022/04/27 03:47:27;;;;;;;40.30;22.95;;;;;;;7.76;96.94;97594.81;10292980;28;20125;-63
2022/04/27 03:52:26;;;;;;;37.75;22.20;;;;;;;7.11;97.47;97482.38;10292420;28;20045;-63
2022/04/27 03:57:24;;;;;;;40.25;22.42;;;;;;;7.50;97.20;97535.19;10292758;28;20479;-63
2022/04/27 04:02:23;;;;;;;36.05;21.80;;;;;;;7.41;97.18;97515.34;10291863;28;20121;-63
2022/04/27 04:07:22;;;;;;;41.97;24.73;;;;;;;7.76;97.58;97579.31;10290916;28;20045;-63
2022/04/27 04:12:21;;;;;;;43.97;25.75;;;;;;;7.91;97.47;97601.78;10292106;28;20407;-63
2022/04/27 04:17:20;;;;;;;52.58;30.50;;;;;;;8.05;97.48;97626.00;10280257;28;20125;-63
2022/04/27 04:22:19;;;;;;;46.47;28.02;;;;;;;8.12;98.08;97639.81;10290797;28;20078;-63
2022/04/27 04:32:40;;;;;;;45.00;28.40;;;;;;;8.12;97.55;97582.97;10291341;28;20073;-63
2022/04/27 04:37:39;;;;;;;49.42;30.35;;;;;;;8.45;97.82;97634.84;10290741;28;20065;-63
2022/04/27 04:42:38;;;;;;;52.40;29.13;;;;;;;8.32;98.08;97583.97;10289743;28;20077;-63
2022/04/27 04:47:37;;;;;;;49.42;29.63;;;;;;;8.91;98.23;97658.38;10288759;28;20414;-64
2022/04/27 04:52:36;;;;;;;44.40;24.27;;;;;;;8.83;98.52;97633.31;10286067;28;20050;-63
2022/04/27 04:57:35;;;;;;;42.38;25.17;;;;;;;9.19;98.37;97666.22;10288919;28;20030;-63
2022/04/27 05:02:34;;;;;;;47.35;26.70;;;;;;;8.36;97.74;97495.19;10288290;28;20062;-63
2022/04/27 05:07:34;;;;;;;40.65;24.75;;;;;;;8.80;97.85;97553.94;10285942;28;20083;-63
2022/04/27 05:12:35;;;;;;;38.70;24.10;;;;;;;9.19;97.82;97598.91;10286879;28;20069;-63
2022/04/27 05:17:34;;;;;;;35.05;22.52;;;;;;;9.59;97.93;97649.94;10285823;28;20096;-63
2022/04/27 05:22:34;;;;;;;41.80;25.15;;;;;;;9.77;97.98;97663.78;10285278;28;20030;-63
2022/04/27 05:27:33;;;;;;;43.92;27.00;;;;;;;9.55;97.25;97597.25;10285465;28;20065;-63
2022/04/27 05:32:43;;;;;;;41.63;25.58;;;;;;;10.11;97.20;97658.59;10283209;28;20036;-63
2022/04/27 05:37:42;;;;;;;;;;;;;;;10.29;96.50;97662.91;10285181;28;20065;-63
2022/04/27 05:42:41;;;;;;;41.42;22.40;;;;;;;10.48;96.62;97665.47;10282475;28;19956;-63
2022/04/27 05:47:40;;;;;;;43.03;20.33;;;;;;;10.21;96.22;97604.97;10281959;28;20053;-63
2022/04/27 05:52:47;;;;;;;28.27;17.85;;;;;;;10.44;95.63;97620.50;10281163;28;20128;-64
2022/04/27 05:57:46;;;;;;;25.85;16.85;;;;;;;10.93;95.43;97661.03;10278797;28;20069;-63
2022/04/27 06:02:46;;;;;;;23.13;14.60;;;;;;;11.04;94.57;97652.31;10276820;28;20118;-63
2022/04/27 06:07:44;;;;;;;24.35;13.15;;;;;;;11.00;92.68;97627.22;10274922;28;20117;-63
2022/04/27 06:12:47;;;;;;;17.70;13.45;;;;;;;11.54;90.40;97667.66;10278776;28;20030;-63
2022/04/27 06:17:46;;;;;;;17.27;12.18;;;;;;;11.24;89.88;97576.03;10279749;28;20469;-63
2022/04/27 06:22:45;;;;;;;18.40;12.73;;;;;;;12.00;89.81;97668.19;10279464;28;20030;-64
2022/04/27 06:27:44;;;;;;;17.88;12.20;;;;;;;11.75;88.80;97596.44;10279904;28;20460;-63
2022/04/27 06:32:43;;;;;;;13.85;9.98;;;;;;;11.99;88.00;97597.97;10286690;28;20100;-63
2022/04/27 06:37:42;;;;;;;15.93;10.63;;;;;;;12.09;87.65;97568.41;10287856;28;20515;-63
2022/04/27 06:42:45;;;;;;;11.93;9.10;;;;;;;12.54;84.92;97609.59;10287684;28;20634;-64
2022/04/27 06:47:43;;;;;;;10.70;8.73;;;;;;;13.09;83.61;97663.63;10287850;28;20117;-62
2022/04/27 06:52:43;;;;;;;13.02;8.18;;;;;;;13.30;83.26;97657.25;10285016;28;20041;-64
2022/04/27 06:57:42;;;;;;;10.98;7.47;;;;;;;13.53;82.44;97668.22;10288850;28;20061;-64
2022/04/27 07:02:41;;;;;;;9.25;7.45;;;;;;;13.48;80.66;97630.94;10287766;28;20596;-62
2022/04/27 07:07:40;;;;;;;10.35;7.10;;;;;;;13.97;78.53;97665.88;10288208;28;20503;-63
2022/04/27 07:12:39;;;;;;;9.75;6.38;;;;;;;13.96;78.60;97623.28;10287742;28;20559;-63
2022/04/27 07:17:38;;;;;;;8.30;5.07;;;;;;;13.96;76.57;97617.19;10287672;28;20456;-64
2022/04/27 07:22:37;;;;;;;6.97;5.50;;;;;;;14.13;76.09;97609.94;10287675;28;20500;-63
2022/04/27 07:27:37;;;;;;;8.85;5.68;;;;;;;14.44;75.43;97609.38;10287827;28;20479;-63
2022/04/27 07:32:36;;;;;;;8.98;6.40;;;;;;;14.98;73.61;97658.00;10287611;28;20637;-64
2022/04/27 07:37:38;;;;;;;10.63;6.20;;;;;;;14.78;72.62;97580.00;10287938;28;20458;-62
2022/04/27 07:42:39;;;;;;;10.55;5.53;;;;;;;15.41;70.87;97654.47;10284919;28;20085;-62
2022/04/27 07:47:46;;;;;;;7.28;4.47;;;;;;;15.50;70.80;97635.97;10285744;28;20057;-64
2022/04/27 07:52:44;;;;;;;7.18;4.00;;;;;;;15.19;69.09;97537.31;10284809;28;20104;-62
2022/04/27 07:57:45;;;;;;;;;;;;;;;16.09;67.60;97652.06;10287445;28;20459;-62
2022/04/27 08:02:44;;;;;;;4.65;4.00;;;;;;;16.08;66.18;97603.19;10286601;28;20008;-61
2022/04/27 08:07:46;;;;;;;;;;;;;;;16.65;65.24;97643.63;10286121;28;20072;-61
2022/04/27 08:12:48;;;;;;;5.93;4.07;;;;;;;16.88;64.08;97636.91;10283190;28;19965;-61
2022/04/27 08:17:53;;;;;;;4.72;3.90;;;;;;;17.11;61.54;97646.75;10285049;28;20064;-61
2022/04/27 08:22:52;;;;;;;5.05;3.60;;;;;;;17.34;59.37;97636.44;10284918;28;20498;-61
2022/04/27 08:27:50;;;;;;;;;;;;;;;17.53;56.00;97638.50;10286057;28;20455;-64
2022/04/27 08:32:49;;;;;;;5.33;3.00;;;;;;;17.71;56.24;97606.44;10285638;28;20015;-64
2022/04/27 08:37:48;;;;;;;;;;;;;;;18.09;56.73;97627.97;10285682;28;20029;-64
2022/04/27 08:42:49;;;;;;;3.90;2.87;;;;;;;18.21;56.19;97610.94;10285562;28;19991;-64
2022/04/27 08:47:50;;;;;;;4.03;2.67;;;;;;;18.40;52.12;97613.78;10285632;28;20064;-63
2022/04/27 08:52:49;;;;;;;6.80;3.75;;;;;;;18.58;53.22;97601.78;10284858;28;20077;-63
2022/04/27 08:57:49;;;;;;;4.90;3.25;;;;;;;18.74;54.50;97586.38;10284756;28;20069;-62
2022/04/27 09:02:52;;;;;;;4.20;2.70;;;;;;;19.02;54.17;97610.72;10286034;28;20547;-61
2022/04/27 09:07:56;;;;;;;8.68;2.92;;;;;;;19.16;53.58;97617.25;10283935;28;20457;-61
2022/04/27 09:12:57;;;;;;;5.43;2.85;;;;;;;19.21;54.48;97597.72;10284173;28;20069;-61
2022/04/27 09:23:48;;;;;;;6.22;3.92;;;;;;;19.64;55.68;97587.31;10282808;28;20558;-61
2022/04/27 09:28:49;;;;;;;6.20;3.42;;;;;;;19.59;52.95;97571.72;10281352;28;20424;-61
2022/04/27 09:33:57;;;;;;;4.38;2.85;;;;;;;19.77;53.33;97580.66;10283890;28;20072;-61
2022/04/27 09:38:57;;;;;;;4.25;2.60;;;;;;;19.83;47.71;97564.56;10283865;28;20069;-62
2022/04/27 09:43:56;;;;;;;2.70;2.15;;;;;;;20.10;46.95;97569.63;10282783;28;20116;-62
2022/04/27 09:49:04;;;;;;;6.30;3.08;;;;;;;20.19;43.57;97566.59;10283584;28;20121;-62
2022/04/27 09:54:04;;;;;;;3.42;2.45;;;;;;;19.84;40.37;97508.38;10285281;28;20092;-62
2022/04/27 09:59:09;;;;;;;3.42;3.10;;;;;;;20.41;43.40;97560.44;10285718;28;20096;-62
2022/04/27 10:04:10;;;;;;;5.18;3.00;;;;;;;20.01;42.86;97457.59;10286241;28;20725;-62
2022/04/27 10:09:09;;;;;;;4.65;2.70;;;;;;;20.55;41.48;97521.13;10291361;28;20072;-62
2022/04/27 10:14:09;;;;;;;3.88;2.58;;;;;;;20.87;41.39;97547.84;10292598;28;20025;-62
2022/04/27 10:19:09;;;;;;;4.30;2.97;;;;;;;21.09;43.36;97548.53;10293093;28;20057;-62
2022/04/27 10:24:12;;;;;;;3.67;2.60;;;;;;;20.85;43.10;97513.63;10293808;28;20065;-61
2022/04/27 10:29:12;;;;;;;6.45;3.42;;;;;;;21.04;44.14;97534.72;10294196;28;20069;-61
2022/04/27 10:34:17;;;;;;;5.85;3.15;;;;;;;21.26;43.16;97524.00;10294091;28;20050;-61
2022/04/27 10:39:19;;;;;;;4.50;2.60;;;;;;;21.10;42.01;97492.22;10293585;28;20060;-61
2022/04/27 10:44:18;;;;;;;6.50;2.83;;;;;;;21.28;44.00;97487.84;10293479;28;20061;-61
2022/04/27 10:49:24;;;;;;;3.22;2.67;;;;;;;21.81;43.35;97504.63;10292906;28;20096;-62
2022/04/27 10:54:28;;;;;;;5.78;3.00;;;;;;;22.08;42.40;97507.66;10293194;28;20060;-60
2022/04/27 11:00:02;;;;;;;4.60;2.95;;;;;;;22.06;41.29;97503.41;10293058;28;20058;-60
2022/04/27 11:05:18;;;;;;;5.00;2.65;;;;;;;22.18;42.52;97497.50;10290699;28;20061;-61
2022/04/27 11:10:18;;;;;;;4.70;3.00;;;;;;;22.37;42.58;97492.09;10293352;28;20061;-60
2022/04/27 11:15:21;;;;;;;3.88;2.88;;;;;;;22.49;41.51;97485.31;10291327;28;20491;-61
2022/04/27 11:20:27;;;;;;;6.53;2.80;;;;;;;22.56;40.38;97476.09;10288774;28;20069;-61
2022/04/27 11:25:31;;;;;;;3.58;2.22;;;;;;;22.57;40.08;97478.66;10287790;28;20065;-61
2022/04/27 11:30:31;;;;;;;3.05;2.38;;;;;;;22.73;39.79;97473.38;10290257;28;20057;-61
2022/04/27 11:35:50;;;;;;;4.78;2.53;;;;;;;22.69;37.64;97465.69;10288017;28;20068;-60
2022/04/27 11:40:51;;;;;;;4.40;2.60;;;;;;;22.81;39.18;97457.13;10291680;28;20065;-61
2022/04/27 11:45:50;;;;;;;4.93;2.85;;;;;;;22.97;39.10;97444.75;10290737;28;20065;-63
2022/04/27 11:50:51;;;;;;;4.75;2.60;;;;;;;22.90;38.86;97394.91;10278179;28;20151;-63
2022/04/27 11:55:52;;;;;;;4.75;2.63;;;;;;;23.34;38.83;97432.06;10289730;28;20565;-63
2022/04/27 12:00:58;;;;;;;4.18;2.22;;;;;;;23.23;38.38;97386.81;10288563;28;20537;-62
2022/04/27 12:05:57;;;;;;;3.17;2.30;;;;;;;23.47;38.45;97421.66;10290809;28;20072;-62
2022/04/27 12:10:56;;;;;;;3.13;2.50;;;;;;;23.54;38.42;97407.13;10288729;28;20084;-62
2022/04/27 12:15:55;;;;;;;4.40;2.63;;;;;;;23.74;37.21;97402.41;10290023;28;20034;-62
2022/04/27 12:20:56;;;;;;;5.35;2.80;;;;;;;24.09;37.06;97410.03;10288548;28;20468;-62
2022/04/27 12:25:57;;;;;;;4.97;2.42;;;;;;;24.05;34.66;97394.31;10289629;28;20057;-60
2022/04/27 12:30:59;;;;;;;3.35;2.50;;;;;;;24.15;35.52;97391.94;10289130;28;20061;-60
2022/04/27 12:41:44;;;;;;;4.07;2.40;;;;;;;24.20;34.83;97326.25;10290401;28;20129;-60
2022/04/27 12:46:57;;;;;;;4.53;2.28;;;;;;;24.74;33.64;97377.69;10288950;28;20062;-60
2022/04/27 12:52:15;;;;;;;4.20;2.15;;;;;;;24.43;33.22;97324.81;10288033;28;20088;-60
2022/04/27 12:57:14;;;;;;;4.63;2.25;;;;;;;24.55;34.20;97307.25;10287070;28;20057;-60
2022/04/27 13:02:17;;;;;;;5.18;2.60;;;;;;;24.78;33.84;97345.56;10287058;28;20514;-60
2022/04/27 13:07:16;;;;;;;4.40;2.33;;;;;;;24.56;34.64;97355.84;10286417;28;20057;-62
2022/04/27 13:12:15;;;;;;;3.95;2.53;;;;;;;24.23;33.76;97319.91;10283706;28;20543;-61
2022/04/27 13:17:14;;;;;;;4.70;2.30;;;;;;;24.66;34.23;97348.97;10286853;28;20414;-61
2022/04/27 13:22:13;;;;;;;5.32;2.50;;;;;;;24.70;34.08;97346.03;10286574;28;20033;-61
2022/04/27 13:27:12;;;;;;;3.13;2.00;;;;;;;24.37;33.63;97349.06;10286643;28;20065;-61
2022/04/27 13:32:11;;;;;;;3.00;2.40;;;;;;;24.39;33.83;97341.84;10284559;28;20034;-62
2022/04/27 13:37:10;;;;;;;3.47;2.03;;;;;;;24.39;32.85;97341.84;10286170;28;20419;-61
2022/04/27 13:42:09;;;;;;;4.18;2.53;;;;;;;24.31;32.46;97338.84;10284864;28;20121;-61
2022/04/27 13:47:08;;;;;;;3.15;1.95;;;;;;;24.31;32.85;97346.81;10285936;28;20042;-61
2022/04/27 13:52:07;;;;;;;5.90;2.53;;;;;;;24.23;32.65;97351.72;10247985;28;1117494;-61
2022/04/27 13:57:06;;;;;;;3.63;2.58;;;;;;;24.09;33.81;97370.25;10287210;28;20069;-61
2022/04/27 14:02:08;;;;;;;5.13;2.72;;;;;;;23.12;38.71;97309.84;10286277;28;20581;-62
2022/04/27 14:07:07;;;;;;;9.73;3.58;;;;;;;21.95;48.00;97391.19;10287543;28;20065;-61
2022/04/27 14:22:41;;;;;;;5.88;3.60;;;;;;;18.17;65.82;97392.22;10287068;28;20062;-61
2022/04/27 14:27:40;;;;;;;6.70;4.13;;;;;;;18.46;67.83;97398.16;10283911;28;20021;-62
2022/04/27 14:32:39;;;;;;;;;;;;;;;19.06;65.81;97385.28;10281438;28;20011;-61
2022/04/27 14:37:38;;;;;;;7.93;4.40;;;;;;;19.49;64.45;97380.00;10285158;28;19917;-61
2022/04/27 14:42:37;;;;;;;7.50;3.80;;;;;;;19.72;63.55;97394.81;10286697;28;20033;-62
2022/04/27 14:47:37;;;;;;;4.22;3.25;;;;;;;19.86;65.28;97389.78;10286932;28;20562;-62
2022/04/27 14:52:37;;;;;;;4.85;3.67;;;;;;;20.14;66.67;97394.72;10288126;28;20074;-62
2022/04/27 14:57:37;;;;;;;6.55;4.07;;;;;;;20.29;64.01;97383.47;10293732;28;20103;-62
2022/04/27 15:02:36;;;;;;;8.55;4.35;;;;;;;20.23;65.86;97360.00;10294590;28;20058;-63
2022/04/27 15:07:35;;;;;;;7.93;3.65;;;;;;;20.57;64.99;97416.47;10293484;28;20057;-63
2022/04/27 15:12:34;;;;;;;6.40;4.18;;;;;;;20.46;61.80;97426.66;10293169;28;20022;-62
2022/04/27 15:17:33;;;;;;;5.25;3.17;;;;;;;19.63;56.58;97319.75;10293470;28;20033;-63
2022/04/27 15:22:44;;;;;;;5.20;3.80;;;;;;;20.10;57.38;97395.78;10292866;28;20033;-62
2022/04/27 15:27:45;;;;;;;5.72;3.22;;;;;;;20.15;56.56;97406.94;10292020;28;20064;-62
2022/04/27 15:32:44;;;;;;;4.90;3.97;;;;;;;21.06;60.45;97469.53;10289777;28;20668;-63
2022/04/27 15:37:43;;;;;;;7.82;5.43;;;;;;;21.16;65.04;97371.47;10292382;28;20396;-61
2022/04/27 15:42:42;;;;;;;7.93;4.38;;;;;;;20.63;61.81;97403.03;10291903;28;20097;-61
2022/04/27 15:47:42;;;;;;;6.03;4.13;;;;;;;20.04;60.27;97425.00;10285449;28;20072;-61
2022/04/27 15:52:42;;;;;;;7.13;4.28;;;;;;;19.75;61.92;97435.03;10291575;28;20069;-61
2022/04/27 15:57:42;;;;;;;8.20;4.60;;;;;;;19.84;62.51;97425.91;10291696;28;20064;-61
2022/04/27 16:02:41;;;;;;;7.53;4.47;;;;;;;20.03;62.92;97426.78;10285746;28;20495;-60
2022/04/27 16:07:42;;;;;;;6.80;4.60;;;;;;;20.14;63.84;97431.59;10287915;28;20100;-61
2022/04/27 16:12:42;;;;;;;7.25;4.45;;;;;;;20.08;63.64;97431.84;10289484;28;20052;-60
2022/04/27 16:17:41;;;;;;;6.53;4.78;;;;;;;19.81;65.03;97383.88;10284437;28;20116;-60
2022/04/27 16:27:57;;;;;;;7.75;5.25;;;;;;;19.81;65.28;97418.13;10290492;28;20061;-61
2022/04/27 16:32:57;;;;;;;9.80;5.93;;;;;;;19.87;66.24;97449.47;10289951;28;20439;-60
2022/04/27 16:37:56;;;;;;;7.57;5.68;;;;;;;19.84;67.43;97447.81;10289588;28;20058;-61
2022/04/27 16:42:55;;;;;;;7.60;6.10;;;;;;;19.47;69.09;97405.53;10287193;28;20089;-61
2022/04/27 16:47:55;;;;;;;9.43;5.82;;;;;;;19.59;70.50;97455.91;10281806;28;20095;-61
2022/04/27 16:52:54;;;;;;;11.05;7.13;;;;;;;19.34;71.46;97460.44;10289876;28;20070;-61
2022/04/27 16:57:53;;;;;;;8.00;5.93;;;;;;;19.16;72.32;97473.44;10289216;28;20022;-61
2022/04/27 17:02:52;;;;;;;15.02;10.35;;;;;;;18.88;72.78;97478.91;10289094;28;20129;-61
2022/04/27 17:07:51;;;;;;;12.30;8.32;;;;;;;18.64;73.99;97474.56;10289103;28;20112;-64
2022/04/27 17:12:51;;;;;;;15.02;8.90;;;;;;;18.18;74.82;97419.34;10287927;28;20061;-61
2022/04/27 17:17:50;;;;;;;12.52;8.38;;;;;;;17.87;75.94;97440.56;10288426;28;20499;-61
2022/04/27 17:22:49;;;;;;;10.00;7.00;;;;;;;17.90;76.61;97487.75;10283560;28;20460;-61
2022/04/27 17:27:51;;;;;;;9.50;7.80;;;;;;;17.72;77.03;97487.41;10288041;28;20425;-61
2022/04/27 17:32:50;;;;;;;10.77;7.75;;;;;;;17.49;77.22;97463.72;10288267;28;20057;-61
2022/04/27 17:37:49;;;;;;;10.88;7.38;;;;;;;17.45;77.69;97499.72;10288353;28;20105;-61
2022/04/27 17:42:50;;;;;;;10.90;7.70;;;;;;;16.40;77.93;97347.47;10288731;28;20050;-61
2022/04/27 17:47:49;;;;;;;11.15;8.25;;;;;;;17.12;78.93;97494.63;10287401;28;20058;-61
2022/04/27 17:52:51;;;;;;;12.30;9.20;;;;;;;16.83;79.52;97486.81;10287415;28;20092;-61
2022/04/27 17:57:51;;;;;;;11.20;9.15;;;;;;;16.81;80.06;97507.81;10286400;28;20443;-61
2022/04/27 18:02:50;;;;;;;13.15;8.50;;;;;;;16.51;80.04;97491.19;10286973;28;20484;-61
2022/04/27 18:07:49;;;;;;;12.05;8.48;;;;;;;16.18;80.25;97482.53;10287608;28;20060;-61
2022/04/27 18:12:50;;;;;;;15.80;9.75;;;;;;;16.21;80.38;97532.22;10281530;28;20507;-61
2022/04/27 18:17:50;;;;;;;14.00;7.93;;;;;;;16.05;80.57;97521.28;10283923;28;20073;-62
2022/04/27 18:22:49;;;;;;;9.63;8.13;;;;;;;15.91;80.95;97529.50;10286773;28;20104;-61
2022/04/27 18:27:48;;;;;;;11.82;8.05;;;;;;;15.79;81.52;97537.69;10291856;28;20061;-61
2022/04/27 18:32:47;;;;;;;;;;;;;;;15.67;81.76;97544.91;10294878;28;20030;-61
2022/04/27 18:37:46;;;;;;;16.25;11.35;;;;;;;15.56;82.85;97541.69;10294074;28;19949;-61
2022/04/27 18:42:44;;;;;;;;;;;;;;;15.45;83.21;97541.94;10288374;28;20022;-61
2022/04/27 18:53:01;;;;;;;17.20;12.95;;;;;;;14.81;84.90;97478.94;10293319;28;20069;-61
2022/04/27 18:57:59;;;;;;;;;;;;;;;15.10;85.85;97541.91;10293784;28;20025;-62
2022/04/27 19:02:58;;;;;;;19.92;14.05;;;;;;;14.96;86.24;97535.22;10293452;28;19920;-61
2022/04/27 19:07:57;;;;;;;18.25;14.77;;;;;;;14.85;86.43;97549.41;10293115;28;20022;-61
2022/04/27 19:12:56;;;;;;;18.65;14.50;;;;;;;14.72;87.20;97540.97;10293529;28;20037;-61
2022/04/27 19:17:56;;;;;;;16.10;12.07;;;;;;;14.32;87.03;97493.00;10292892;28;20025;-61
2022/04/27 19:22:55;;;;;;;17.50;12.45;;;;;;;14.53;86.98;97541.31;10292494;28;20072;-61
2022/04/27 19:27:54;;;;;;;17.73;13.38;;;;;;;14.44;87.14;97551.09;10291890;28;20076;-61
2022/04/27 19:32:53;;;;;;;18.30;12.93;;;;;;;14.30;87.62;97549.59;10291557;28;20030;-61
2022/04/27 19:37:52;;;;;;;19.83;13.05;;;;;;;13.90;88.01;97506.00;10292049;28;20042;-61
2022/04/27 19:42:51;;;;;;;26.75;18.35;;;;;;;13.76;88.38;97490.59;10289924;28;20045;-62
2022/04/27 19:47:50;;;;;;;25.48;15.63;;;;;;;14.07;88.29;97549.19;10290252;28;20053;-62
2022/04/27 19:52:52;;;;;;;20.90;14.88;;;;;;;13.75;88.71;97514.97;10290689;28;20038;-63
2022/04/27 19:57:54;;;;;;;22.27;15.73;;;;;;;13.84;89.06;97552.19;10289813;28;20121;-62
2022/04/27 20:02:53;;;;;;;32.85;22.95;;;;;;;13.42;90.07;97494.63;10290161;28;20534;-63
2022/04/27 20:07:52;;;;;;;32.70;22.55;;;;;;;13.39;90.02;97519.00;10289986;28;20032;-61
2022/04/27 20:12:51;;;;;;;30.77;22.30;;;;;;;13.55;91.22;97554.41;10289404;28;20528;-61
2022/04/27 20:17:50;;;;;;;30.92;23.30;;;;;;;13.48;91.32;97546.69;10289112;28;20025;-61
2022/04/27 20:22:49;;;;;;;45.08;29.75;;;;;;;13.19;91.64;97505.41;10286698;28;20030;-61
2022/04/27 20:27:48;;;;;;;46.78;26.85;;;;;;;13.43;92.06;97545.91;10302862;28;20121;-61
2022/04/27 20:32:47;;;;;;;30.85;21.52;;;;;;;13.23;91.98;97530.56;10290640;28;20064;-63
2022/04/27 20:37:46;;;;;;;28.52;18.27;;;;;;;13.14;92.29;97539.34;10289741;28;20022;-62
2022/04/27 20:42:45;;;;;;;31.08;18.63;;;;;;;13.18;92.39;97566.25;10289244;28;20077;-61
2022/04/27 20:47:44;;;;;;;25.92;17.88;;;;;;;12.96;92.35;97532.69;10289416;28;20558;-61
2022/04/27 20:52:43;;;;;;;30.05;18.40;;;;;;;12.99;92.47;97545.66;10288806;28;20088;-61
2022/04/27 20:57:42;;;;;;;33.53;19.70;;;;;;;12.93;92.33;97546.63;10289348;28;20064;-61
2022/04/27 21:02:42;;;;;;;34.35;23.80;;;;;;;12.86;92.64;97542.38;10289403;28;20032;-61
2022/04/27 21:07:41;;;;;;;38.00;27.45;;;;;;;12.33;93.24;97485.81;10289217;28;20061;-61
2022/04/27 21:12:41;;;;;;;35.30;24.15;;;;;;;11.94;93.55;97428.97;10288877;28;20064;-61
2022/04/27 21:17:40;;;;;;;31.35;21.40;;;;;;;12.51;93.83;97546.28;10288619;28;20444;-61
2022/04/27 21:22:39;;;;;;;34.30;21.05;;;;;;;12.31;93.87;97506.63;10288641;28;20174;-61
2022/04/27 21:27:39;;;;;;;32.35;21.10;;;;;;;11.65;93.79;97411.13;10285542;28;20120;-61
2022/04/27 21:32:38;;;;;;;32.53;21.90;;;;;;;12.08;94.40;97499.91;10288435;28;20057;-61
2022/04/27 21:37:37;;;;;;;41.88;22.80;;;;;;;11.39;94.25;97381.09;10288838;28;20080;-61
2022/04/27 21:42:36;;;;;;;40.95;22.52;;;;;;;12.34;94.71;97550.81;10288429;28;20951;-61
2022/04/27 21:47:35;;;;;;;38.65;22.33;;;;;;;11.75;94.70;97462.13;10287574;28;20061;-61
2022/04/27 21:52:34;;;;;;;33.50;21.25;;;;;;;12.17;94.97;97544.91;10288054;28;20077;-61
2022/04/27 21:57:33;;;;;;;36.00;22.23;;;;;;;11.85;95.39;97504.50;10287505;28;20029;-61
2022/04/27 22:02:32;;;;;;;;;;;;;;;12.04;95.71;97538.97;10289398;28;20070;-61
2022/04/27 22:07:31;;;;;;;40.50;24.83;;;;;;;11.99;96.18;97536.41;10295012;28;19988;-62
2022/04/27 22:12:30;;;;;;;39.67;24.92;;;;;;;11.79;95.78;97508.03;10295301;28;20029;-61
2022/04/27 22:17:29;;;;;;;37.70;24.35;;;;;;;11.93;95.90;97528.69;10290625;28;20518;-61
2022/04/27 22:22:28;;;;;;;40.78;24.92;;;;;;;11.89;95.78;97527.84;10289290;28;20069;-61
2022/04/27 22:27:27;;;;;;;;;;;;;;;11.80;95.71;97535.72;10291948;28;20132;-61
2022/04/27 22:32:26;;;;;;;36.83;23.27;;;;;;;11.20;97.13;97473.06;10294683;28;19924;-61
2022/04/27 22:37:25;;;;;;;36.95;23.40;;;;;;;10.94;98.60;97458.53;10295017;28;20488;-61
2022/04/27 22:42:24;;;;;;;40.35;24.50;;;;;;;11.43;98.00;97545.56;10292902;28;20041;-61
2022/04/27 22:47:23;;;;;;;38.83;23.90;;;;;;;10.80;97.41;97470.72;10293893;28;20033;-61
2022/04/27 22:52:22;;;;;;;30.67;21.38;;;;;;;11.08;97.59;97564.91;10294643;28;20049;-61
2022/04/27 22:57:21;;;;;;;;;;;;;;;10.99;97.48;97571.00;10294816;28;20482;-62
2022/04/27 23:02:20;;;;;;;31.83;19.05;;;;;;;10.98;97.07;97582.22;10293538;28;19952;-61
2022/04/27 23:07:19;;;;;;;37.20;20.83;;;;;;;10.98;97.55;97583.97;10293887;28;20507;-61
2022/04/27 23:12:19;;;;;;;36.97;20.88;;;;;;;10.99;96.59;97591.78;10292791;28;20065;-61
2022/04/27 23:17:19;;;;;;;35.03;22.52;;;;;;;10.64;96.82;97526.16;10289568;28;20058;-61
2022/04/27 23:22:18;;;;;;;38.03;23.80;;;;;;;11.15;96.98;97602.06;10293258;28;20054;-61
2022/04/27 23:27:17;;;;;;;42.70;25.17;;;;;;;10.94;97.20;97571.88;10291934;28;20083;-61
2022/04/27 23:32:18;;;;;;;43.95;26.30;;;;;;;10.96;97.76;97578.81;10292406;28;20040;-61
2022/04/27 23:37:17;;;;;;;49.42;29.58;;;;;;;10.86;97.67;97558.06;10290785;28;20053;-61
2022/04/27 23:42:16;;;;;;;;;;;;;;;11.41;98.15;97657.34;10292763;28;20061;-62
2022/04/27 23:47:15;;;;;;;47.47;30.25;;;;;;;11.41;98.61;97672.91;10291536;28;19913;-61
2022/04/27 23:52:14;;;;;;;47.40;28.33;;;;;;;11.39;99.12;97659.06;10292064;28;20065;-61
2022/04/27 23:57:17;;;;;;;39.95;25.55;;;;;;;11.53;99.37;97697.13;10291660;28;20515;-61
